createdAt,value
2022-08-09T00:01:00.247Z,55.08
2022-08-09T00:04:03.773Z,55.43
2022-08-09T00:06:23.316Z,55.24
2022-08-09T00:08:52.040Z,55.35
2022-08-09T00:11:25.050Z,55.62
2022-08-09T00:13:56.379Z,55.74
2022-08-09T00:16:36.695Z,55.93
2022-08-09T00:19:09.239Z,55.64
2022-08-09T00:21:55.713Z,56.01
2022-08-09T00:24:27.203Z,55.87
2022-08-09T00:26:57.318Z,55.83
2022-08-09T00:30:09.715Z,56.02
2022-08-09T00:32:26.733Z,56.06
2022-08-09T00:35:05.749Z,56.09
2022-08-09T00:37:35.233Z,56.36
2022-08-09T00:40:12.362Z,56.53
2022-08-09T00:44:16.133Z,56.39
2022-08-09T00:45:35.184Z,56.33
2022-08-09T00:48:05.911Z,56.45
2022-08-09T00:50:37.892Z,56.42
2022-08-09T00:53:10.532Z,56.74
2022-08-09T00:56:03.809Z,56.72
2022-08-09T00:58:30.816Z,56.42
2022-08-09T01:01:00.448Z,56.83
2022-08-09T01:03:45.708Z,56.63
2022-08-09T01:06:25.527Z,57.09
2022-08-09T01:09:13.165Z,56.56
2022-08-09T01:11:55.662Z,56.88
2022-08-09T01:14:32.808Z,56.69
2022-08-09T01:17:08.828Z,56.54
2022-08-09T01:20:02.130Z,56.71
2022-08-09T01:22:54.700Z,56.78
2022-08-09T01:25:42.180Z,57.22
2022-08-09T01:28:18.983Z,56.88
2022-08-09T01:30:51.582Z,57.07
2022-08-09T01:33:25.860Z,57.56
2022-08-09T01:36:03.295Z,57.69
2022-08-09T01:38:38.583Z,57.68
2022-08-09T01:41:13.967Z,57.87
2022-08-09T01:43:51.070Z,57.62
2022-08-09T01:46:26.932Z,57.53
2022-08-09T01:48:59.804Z,57.90
2022-08-09T01:51:32.192Z,58.27
2022-08-09T01:54:04.733Z,58.19
2022-08-09T01:56:36.630Z,58.12
2022-08-09T01:59:10.227Z,58.61
2022-08-09T02:01:59.988Z,58.31
2022-08-09T02:04:33.275Z,59.17
2022-08-09T02:07:08.693Z,58.52
2022-08-09T02:09:59.895Z,59.10
2022-08-09T02:12:32.924Z,58.72
2022-08-09T02:15:06.327Z,58.89
2022-08-09T02:18:00.251Z,58.65
2022-08-09T02:20:32.826Z,59.04
2022-08-09T02:23:07.364Z,59.01
2022-08-09T02:25:42.533Z,59.32
2022-08-09T02:28:24.243Z,58.99
2022-08-09T02:31:01.210Z,59.66
2022-08-09T02:33:38.443Z,59.82
2022-08-09T02:36:30.882Z,60.00
2022-08-09T02:39:04.385Z,59.79
2022-08-09T02:41:40.957Z,60.14
2022-08-09T02:44:29.570Z,60.19
2022-08-09T02:47:04.645Z,60.51
2022-08-09T02:49:38.839Z,60.30
2022-08-09T02:52:15.289Z,60.75
2022-08-09T02:54:54.524Z,60.68
2022-08-09T02:57:27.915Z,60.75
2022-08-09T03:00:20.591Z,60.85
2022-08-09T03:02:58.482Z,60.36
2022-08-09T03:05:34.757Z,60.42
2022-08-09T03:08:05.456Z,60.40
2022-08-09T03:10:36.536Z,60.57
2022-08-09T03:13:08.456Z,60.88
2022-08-09T03:16:06.333Z,60.75
2022-08-09T03:18:31.131Z,60.48
2022-08-09T03:21:02.624Z,60.84
2022-08-09T03:23:31.856Z,61.28
2022-08-09T03:26:03.401Z,61.05
2022-08-09T03:28:36.070Z,61.28
2022-08-09T03:31:10.492Z,61.25
2022-08-09T03:33:54.588Z,61.26
2022-08-09T03:36:27.535Z,61.47
2022-08-09T03:38:57.108Z,61.63
2022-08-09T03:41:30.306Z,61.75
2022-08-09T03:44:15.547Z,61.63
2022-08-09T03:46:44.340Z,61.81
2022-08-09T03:49:18.937Z,61.93
2022-08-09T03:51:56.697Z,61.51
2022-08-09T03:54:32.103Z,61.73
2022-08-09T03:57:04.481Z,61.60
2022-08-09T03:59:54.858Z,62.10
2022-08-09T04:02:27.946Z,62.03
2022-08-09T04:05:06.398Z,61.96
2022-08-09T04:07:52.476Z,61.71
2022-08-09T04:10:29.658Z,62.08
2022-08-09T04:13:00.699Z,61.81
2022-08-09T04:15:52.460Z,61.77
2022-08-09T04:18:21.285Z,62.07
2022-08-09T04:20:51.214Z,61.74
2022-08-09T04:23:24.442Z,62.16
2022-08-09T04:25:54.771Z,61.84
2022-08-09T04:28:34.315Z,61.79
2022-08-09T04:31:09.055Z,61.74
2022-08-09T04:33:51.566Z,62.02
2022-08-09T04:36:24.746Z,62.22
2022-08-09T04:38:54.540Z,61.75
2022-08-09T04:41:31.981Z,61.78
2022-08-09T04:44:06.328Z,61.60
2022-08-09T04:46:57.209Z,61.79
2022-08-09T04:49:53.319Z,62.09
2022-08-09T04:52:22.105Z,61.64
2022-08-09T04:54:56.293Z,61.59
2022-08-09T04:57:25.628Z,61.59
2022-08-09T04:59:56.061Z,61.60
2022-08-09T05:02:27.571Z,61.74
2022-08-09T05:04:56.442Z,61.96
2022-08-09T05:07:29.335Z,61.51
2022-08-09T05:10:01.649Z,62.06
2022-08-09T05:12:33.153Z,61.89
2022-08-09T05:15:03.852Z,61.71
2022-08-09T05:18:37.691Z,62.03
2022-08-09T05:20:30.469Z,61.92
2022-08-09T05:23:54.787Z,61.97
2022-08-09T05:25:50.706Z,61.78
2022-08-09T05:28:20.670Z,61.91
2022-08-09T05:30:49.329Z,61.70
2022-08-09T05:33:26.466Z,61.56
2022-08-09T05:36:03.444Z,61.68
2022-08-09T05:38:32.671Z,61.46
2022-08-09T05:41:01.242Z,61.46
2022-08-09T05:43:31.868Z,61.73
2022-08-09T05:46:01.205Z,61.94
2022-08-09T05:48:33.147Z,61.78
2022-08-09T05:51:43.124Z,61.45
2022-08-09T05:53:57.405Z,61.73
2022-08-09T05:56:27.653Z,61.69
2022-08-09T05:58:58.342Z,61.47
2022-08-09T06:01:34.081Z,61.18
2022-08-09T06:04:12.294Z,61.48
2022-08-09T06:06:46.712Z,61.37
2022-08-09T06:09:40.890Z,61.47
2022-08-09T06:12:09.114Z,61.08
2022-08-09T06:14:37.719Z,61.21
2022-08-09T06:17:09.573Z,61.04
2022-08-09T06:19:39.120Z,61.19
2022-08-09T06:22:15.357Z,61.15
2022-08-09T06:24:44.687Z,61.18
2022-08-09T06:27:15.624Z,60.70
2022-08-09T06:29:48.348Z,60.69
2022-08-09T06:32:53.486Z,60.82
2022-08-09T06:35:22.117Z,60.61
2022-08-09T06:38:11.295Z,60.71
2022-08-09T06:40:43.861Z,60.66
2022-08-09T06:43:12.977Z,60.38
2022-08-09T06:46:06.834Z,60.03
2022-08-09T06:48:31.306Z,60.45
2022-08-09T06:51:00.158Z,60.21
2022-08-09T06:53:33.371Z,60.25
2022-08-09T06:56:09.292Z,59.94
2022-08-09T07:00:47.719Z,59.66
2022-08-09T07:01:35.665Z,60.08
2022-08-09T07:04:19.762Z,59.89
2022-08-09T07:06:53.416Z,59.45
2022-08-09T07:09:55.013Z,59.56
2022-08-09T07:12:20.092Z,59.01
2022-08-09T07:14:50.698Z,59.37
2022-08-09T07:17:21.712Z,59.05
2022-08-09T07:19:55.433Z,58.70
2022-08-09T07:22:34.225Z,58.98
2022-08-09T07:25:09.821Z,58.81
2022-08-09T07:27:42.633Z,58.79
2022-08-09T07:30:24.753Z,58.29
2022-08-09T07:32:55.298Z,58.59
2022-08-09T07:35:25.686Z,58.16
2022-08-09T07:37:59.592Z,58.40
2022-08-09T07:40:37.308Z,57.97
2022-08-09T07:43:17.434Z,57.87
2022-08-09T07:45:46.309Z,57.30
2022-08-09T07:48:22.580Z,57.26
2022-08-09T07:51:10.156Z,57.41
2022-08-09T07:54:05.044Z,57.37
2022-08-09T07:56:48.697Z,57.07
2022-08-09T07:59:34.302Z,56.87
2022-08-09T08:02:19.781Z,56.50
2022-08-09T08:04:49.413Z,56.49
2022-08-09T08:08:06.510Z,55.86
2022-08-09T08:10:11.865Z,55.90
2022-08-09T08:12:45.571Z,55.81
2022-08-09T08:15:17.541Z,55.13
2022-08-09T08:17:54.741Z,54.99
2022-08-09T08:20:28.702Z,55.03
2022-08-09T08:23:03.772Z,54.61
2022-08-09T08:25:49.859Z,54.24
2022-08-09T08:28:32.270Z,53.89
2022-08-09T08:31:08.836Z,53.82
2022-08-09T08:33:53.001Z,53.71
2022-08-09T08:36:28.810Z,53.54
2022-08-09T08:39:00.488Z,53.36
2022-08-09T08:41:50.896Z,52.51
2022-08-09T08:44:26.927Z,52.79
2022-08-09T08:47:02.166Z,52.61
2022-08-09T08:49:46.432Z,52.52
2022-08-09T08:52:58.473Z,52.51
2022-08-09T08:55:10.670Z,52.42
2022-08-09T08:57:39.455Z,52.01
2022-08-09T09:00:17.083Z,51.88
2022-08-09T09:02:52.486Z,52.17
2022-08-09T09:05:57.810Z,51.31
2022-08-09T09:08:30.048Z,51.59
2022-08-09T09:11:03.725Z,51.55
2022-08-09T09:13:54.911Z,51.63
2022-08-09T09:16:30.659Z,51.74
2022-08-09T09:19:37.745Z,51.30
2022-08-09T09:22:04.099Z,51.36
2022-08-09T09:24:37.811Z,51.93
2022-08-09T09:27:08.757Z,51.42
2022-08-09T09:30:14.091Z,51.25
2022-08-09T09:32:34.549Z,51.09
2022-08-09T09:35:07.504Z,51.14
2022-08-09T09:37:40.402Z,51.62
2022-08-09T09:40:12.296Z,51.72
2022-08-09T09:42:46.366Z,51.12
2022-08-09T09:45:26.720Z,51.38
2022-08-09T09:48:03.313Z,50.86
2022-08-09T09:50:49.559Z,50.99
2022-08-09T09:53:34.379Z,50.97
2022-08-09T09:56:20.067Z,51.16
2022-08-09T09:59:00.743Z,50.74
2022-08-09T10:01:30.175Z,50.69
2022-08-09T10:04:15.945Z,50.91
2022-08-09T10:06:52.063Z,50.76
2022-08-09T10:09:24.094Z,50.69
2022-08-09T10:12:14.315Z,50.49
2022-08-09T10:14:51.756Z,50.41
2022-08-09T10:17:55.033Z,49.78
2022-08-09T10:20:32.851Z,49.84
2022-08-09T10:23:22.311Z,50.18
2022-08-09T10:26:07.840Z,49.60
2022-08-09T10:28:41.403Z,49.63
2022-08-09T10:32:27.895Z,49.34
2022-08-09T10:34:10.187Z,49.49
2022-08-09T10:36:55.795Z,49.66
2022-08-09T10:39:26.900Z,49.33
2022-08-09T10:41:57.125Z,49.06
2022-08-09T10:44:29.914Z,48.92
2022-08-09T10:48:17.296Z,49.14
2022-08-09T10:50:30.862Z,49.41
2022-08-09T10:53:10.562Z,48.57
2022-08-09T10:55:58.188Z,49.07
2022-08-09T10:58:33.875Z,49.11
2022-08-09T11:03:02.016Z,48.72
2022-08-09T11:04:28.577Z,48.93
2022-08-09T11:07:57.848Z,48.42
2022-08-09T11:11:08.364Z,48.36
2022-08-09T11:13:50.105Z,47.95
2022-08-09T11:16:47.547Z,47.54
2022-08-09T11:20:19.617Z,47.33
2022-08-09T11:23:07.106Z,47.36
2022-08-09T11:25:51.523Z,46.20
2022-08-09T11:28:55.990Z,46.61
2022-08-09T11:31:49.549Z,46.09
2022-08-09T11:34:28.163Z,45.81
2022-08-09T11:37:00.466Z,45.25
2022-08-09T11:39:33.582Z,45.26
2022-08-09T11:42:14.927Z,45.08
2022-08-09T11:44:48.636Z,44.99
2022-08-09T11:47:17.373Z,45.30
2022-08-09T11:51:19.123Z,44.83
2022-08-09T11:53:57.610Z,44.82
2022-08-09T11:56:41.772Z,44.88
2022-08-09T11:59:30.144Z,44.20
2022-08-09T12:02:34.265Z,43.80
2022-08-09T12:04:58.964Z,43.95
2022-08-09T12:07:41.363Z,43.39
2022-08-09T12:10:38.891Z,43.12
2022-08-09T12:13:03.844Z,42.30
2022-08-09T12:15:51.946Z,42.16
2022-08-09T12:18:25.874Z,42.47
2022-08-09T12:21:00.722Z,41.99
2022-08-09T12:23:56.681Z,42.38
2022-08-09T12:26:26.247Z,42.60
2022-08-09T12:29:12.802Z,42.26
2022-08-09T12:31:59.132Z,41.63
2022-08-09T12:34:39.807Z,41.59
2022-08-09T12:37:23.564Z,41.52
2022-08-09T12:40:08.969Z,41.46
2022-08-09T12:42:43.040Z,41.30
2022-08-09T12:45:33.671Z,40.82
2022-08-09T12:48:01.411Z,40.85
2022-08-09T12:50:30.803Z,40.80
2022-08-09T12:53:18.011Z,41.10
2022-08-09T12:56:14.375Z,40.54
2022-08-09T12:58:42.520Z,40.35
2022-08-09T13:01:28.359Z,40.29
2022-08-09T13:04:00.436Z,40.13
2022-08-09T13:06:34.674Z,40.07
2022-08-09T13:09:11.227Z,39.86
2022-08-09T13:11:49.704Z,39.55
2022-08-09T13:14:43.893Z,39.39
2022-08-09T13:17:44.274Z,39.51
2022-08-09T13:20:17.502Z,38.98
2022-08-09T13:23:06.154Z,38.74
2022-08-09T13:25:52.980Z,38.95
2022-08-09T13:28:34.097Z,39.07
2022-08-09T13:32:12.594Z,39.04
2022-08-09T13:33:58.300Z,38.63
2022-08-09T13:36:40.309Z,38.09
2022-08-09T13:41:18.840Z,38.33
2022-08-09T13:42:04.916Z,38.51
2022-08-09T13:44:34.823Z,38.78
2022-08-09T13:47:26.520Z,38.83
2022-08-09T13:49:58.018Z,39.26
2022-08-09T13:52:30.591Z,39.40
2022-08-09T13:55:04.593Z,39.45
2022-08-09T13:57:39.696Z,39.56
2022-08-09T14:00:18.445Z,39.53
2022-08-09T14:03:04.082Z,39.89
2022-08-09T14:05:59.481Z,39.47
2022-08-09T14:08:31.357Z,40.21
2022-08-09T14:11:01.087Z,39.98
2022-08-09T14:14:22.485Z,40.36
2022-08-09T14:16:28.561Z,40.30
2022-08-09T14:18:58.390Z,40.32
2022-08-09T14:21:29.506Z,40.58
2022-08-09T14:24:05.542Z,40.95
2022-08-09T14:26:51.188Z,40.62
2022-08-09T14:30:04.197Z,40.43
2022-08-09T14:32:11.071Z,40.27
2022-08-09T14:34:41.702Z,40.06
2022-08-09T14:37:11.005Z,39.83
2022-08-09T14:39:47.455Z,40.29
2022-08-09T14:42:30.357Z,40.02
2022-08-09T14:46:57.564Z,40.21
2022-08-09T14:47:59.732Z,40.03
2022-08-09T14:50:33.062Z,40.05
2022-08-09T14:53:06.274Z,40.02
2022-08-09T14:55:42.039Z,39.72
2022-08-09T14:58:12.163Z,39.97
2022-08-09T15:00:42.501Z,40.03
2022-08-09T15:03:20.549Z,39.82
2022-08-09T15:05:59.749Z,39.81
2022-08-09T15:08:32.879Z,40.14
2022-08-09T15:11:07.419Z,40.23
2022-08-09T15:13:48.384Z,40.34
2022-08-09T15:16:30.379Z,40.39
2022-08-09T15:19:02.611Z,40.29
2022-08-09T15:21:57.232Z,40.50
2022-08-09T15:24:29.153Z,40.77
2022-08-09T15:26:58.039Z,40.54
2022-08-09T15:30:55.747Z,41.30
2022-08-09T15:32:28.905Z,41.34
2022-08-09T15:35:01.912Z,41.03
2022-08-09T15:37:56.773Z,41.47
2022-08-09T15:40:36.874Z,41.63
2022-08-09T15:43:05.729Z,41.75
2022-08-09T15:45:51.891Z,42.17
2022-08-09T15:48:29.308Z,42.07
2022-08-09T15:51:00.500Z,42.27
2022-08-09T15:54:03.756Z,42.87
2022-08-09T15:56:21.005Z,42.87
2022-08-09T15:58:52.562Z,42.74
2022-08-09T16:01:21.529Z,43.10
2022-08-09T16:03:51.002Z,43.39
2022-08-09T16:06:32.755Z,43.28
2022-08-09T16:09:04.949Z,43.52
2022-08-09T16:11:34.113Z,43.56
2022-08-09T16:14:07.722Z,43.55
2022-08-09T16:16:39.183Z,43.80
2022-08-09T16:19:13.515Z,43.16
2022-08-09T16:21:52.050Z,43.75
2022-08-09T16:24:33.022Z,43.56
2022-08-09T16:27:05.217Z,44.05
2022-08-09T16:29:37.286Z,43.66
2022-08-09T16:32:18.561Z,44.24
2022-08-09T16:34:57.980Z,44.42
2022-08-09T16:37:55.604Z,43.97
2022-08-09T16:40:29.727Z,44.28
2022-08-09T16:43:07.953Z,44.66
2022-08-09T16:45:37.249Z,44.38
2022-08-09T16:48:37.913Z,45.10
2022-08-09T16:51:08.201Z,45.35
2022-08-09T16:54:09.129Z,45.43
2022-08-09T16:56:32.494Z,45.58
2022-08-09T16:59:06.925Z,45.67
2022-08-09T17:01:43.768Z,45.26
2022-08-09T17:04:20.036Z,45.71
2022-08-09T17:08:46.751Z,45.69
2022-08-09T17:09:47.267Z,46.10
2022-08-09T17:12:17.019Z,46.10
2022-08-09T17:14:49.042Z,46.71
2022-08-09T17:17:27.047Z,46.86
2022-08-09T17:20:29.797Z,47.02
2022-08-09T17:22:49.791Z,46.97
2022-08-09T17:25:19.727Z,47.45
2022-08-09T17:27:54.411Z,47.62
2022-08-09T17:30:28.076Z,47.87
2022-08-09T17:33:04.823Z,47.71
2022-08-09T17:35:41.237Z,47.91
2022-08-09T17:38:32.404Z,48.02
2022-08-09T17:41:02.238Z,48.48
2022-08-09T17:43:33.843Z,48.63
2022-08-09T17:46:07.296Z,48.71
2022-08-09T17:48:39.769Z,48.72
2022-08-09T17:51:19.290Z,48.83
2022-08-09T17:53:53.645Z,48.62
2022-08-09T17:56:26.587Z,48.88
2022-08-09T17:58:59.651Z,49.12
2022-08-09T18:01:40.905Z,49.60
2022-08-09T18:04:19.055Z,49.56
2022-08-09T18:06:54.169Z,49.54
2022-08-09T18:09:40.703Z,49.75
2022-08-09T18:12:17.045Z,49.43
2022-08-09T18:14:54.768Z,50.18
2022-08-09T18:18:02.628Z,50.13
2022-08-09T18:21:01.832Z,50.44
2022-08-09T18:23:04.911Z,50.48
2022-08-09T18:25:50.292Z,50.60
2022-08-09T18:30:34.485Z,50.63
2022-08-09T18:31:13.789Z,50.98
2022-08-09T18:33:48.872Z,51.49
2022-08-09T18:36:25.624Z,51.51
2022-08-09T18:39:03.008Z,51.96
2022-08-09T18:41:34.537Z,52.24
2022-08-09T18:44:12.864Z,52.17
2022-08-09T18:46:46.262Z,52.28
2022-08-09T18:49:23.713Z,52.84
2022-08-09T18:51:55.465Z,52.86
2022-08-09T18:54:28.780Z,52.92
2022-08-09T18:57:05.243Z,53.07
2022-08-09T18:59:48.420Z,53.18
2022-08-09T19:02:19.149Z,53.29
2022-08-09T19:05:03.286Z,53.72
2022-08-09T19:07:33.449Z,53.53
2022-08-09T19:10:17.074Z,54.17
2022-08-09T19:13:01.789Z,54.31
2022-08-09T19:15:36.429Z,54.23
2022-08-09T19:18:06.134Z,54.16
2022-08-09T19:20:45.988Z,54.73
2022-08-09T19:24:32.300Z,54.60
2022-08-09T19:26:14.845Z,55.16
2022-08-09T19:28:48.862Z,54.76
2022-08-09T19:31:17.942Z,55.12
2022-08-09T19:33:46.734Z,55.02
2022-08-09T19:36:15.445Z,55.69
2022-08-09T19:38:45.606Z,55.39
2022-08-09T19:41:32.627Z,55.89
2022-08-09T19:44:05.022Z,55.96
2022-08-09T19:46:35.326Z,55.65
2022-08-09T19:50:06.598Z,55.85
2022-08-09T19:51:56.909Z,56.03
2022-08-09T19:54:26.498Z,56.50
2022-08-09T19:56:56.081Z,56.06
2022-08-09T19:59:58.999Z,56.12
2022-08-09T20:04:10.570Z,56.45
2022-08-09T20:05:11.807Z,56.76
2022-08-09T20:08:00.168Z,56.85
2022-08-09T20:10:34.350Z,57.32
2022-08-09T20:13:07.903Z,57.04
2022-08-09T20:16:35.162Z,57.22
2022-08-09T20:18:28.038Z,57.74
2022-08-09T20:20:57.686Z,57.70
2022-08-09T20:23:39.766Z,58.02
2022-08-09T20:26:09.745Z,57.92
2022-08-09T20:28:48.469Z,57.77
2022-08-09T20:31:18.973Z,58.42
2022-08-09T20:33:52.383Z,57.99
2022-08-09T20:36:27.733Z,58.63
2022-08-09T20:39:28.127Z,58.59
2022-08-09T20:41:48.940Z,58.92
2022-08-09T20:44:26.356Z,58.52
2022-08-09T20:46:55.964Z,58.75
2022-08-09T20:49:27.003Z,59.33
2022-08-09T20:51:57.486Z,59.04
2022-08-09T20:54:30.471Z,59.18
2022-08-09T20:56:59.237Z,59.57
2022-08-09T21:00:19.292Z,59.30
2022-08-09T21:02:24.000Z,59.98
2022-08-09T21:05:54.620Z,59.83
2022-08-09T21:07:44.403Z,59.84
2022-08-09T21:10:13.362Z,60.45
2022-08-09T21:15:34.474Z,60.70
2022-08-09T21:18:29.567Z,60.51
2022-08-09T21:20:54.166Z,60.21
2022-08-09T21:23:26.573Z,61.33
2022-08-09T21:26:12.267Z,61.05
2022-08-09T21:28:55.956Z,60.61
2022-08-09T21:31:49.284Z,60.80
2022-08-09T21:34:28.701Z,61.04
2022-08-09T21:36:58.481Z,61.01
2022-08-09T21:39:28.134Z,61.16
2022-08-09T21:42:11.112Z,61.01
2022-08-09T21:44:42.630Z,61.87
2022-08-09T21:47:17.454Z,61.65
2022-08-09T21:49:48.976Z,61.67
2022-08-09T21:52:20.488Z,62.10
2022-08-09T21:54:57.182Z,61.55
2022-08-09T21:57:38.278Z,61.63
2022-08-09T22:00:25.224Z,62.27
2022-08-09T22:02:58.390Z,61.62
2022-08-09T22:05:36.690Z,62.36
2022-08-09T22:08:12.987Z,62.14
2022-08-09T22:11:50.024Z,61.78
2022-08-09T22:13:35.662Z,62.05
2022-08-09T22:16:08.529Z,62.53
2022-08-09T22:18:54.583Z,61.92
2022-08-09T22:21:27.467Z,62.31
2022-08-09T22:24:17.054Z,62.47
2022-08-09T22:26:51.110Z,62.60
2022-08-09T22:29:28.946Z,62.18
2022-08-09T22:32:29.502Z,62.72
2022-08-09T22:35:06.091Z,62.20
2022-08-09T22:37:40.325Z,62.67
2022-08-09T22:40:20.147Z,62.92
2022-08-09T22:42:49.090Z,63.47
2022-08-09T22:48:12.886Z,63.14
2022-08-09T22:48:29.855Z,63.19
2022-08-09T22:50:55.630Z,63.24
2022-08-09T22:53:24.196Z,63.79
2022-08-09T22:56:29.755Z,63.86
2022-08-09T22:58:41.915Z,62.95
2022-08-09T23:01:11.378Z,64.11
2022-08-09T23:04:04.236Z,63.92
2022-08-09T23:06:50.776Z,64.17
2022-08-09T23:09:19.458Z,64.53
2022-08-09T23:11:48.175Z,63.73
2022-08-09T23:14:17.645Z,64.18
2022-08-09T23:17:05.908Z,64.33
2022-08-09T23:20:00.610Z,64.32
2022-08-09T23:22:23.358Z,63.81
2022-08-09T23:24:52.139Z,64.27
2022-08-09T23:27:21.118Z,64.55
2022-08-09T23:29:49.736Z,64.86
2022-08-09T23:32:18.747Z,64.24
2022-08-09T23:34:47.450Z,64.01
2022-08-09T23:37:17.154Z,64.43
2022-08-09T23:39:50.429Z,65.13
2022-08-09T23:42:19.003Z,64.68
2022-08-09T23:44:47.557Z,64.81
2022-08-09T23:47:16.165Z,65.04
2022-08-09T23:49:44.624Z,64.89
2022-08-09T23:52:13.144Z,64.34
2022-08-09T23:54:45.427Z,64.56
2022-08-09T23:57:14.494Z,65.37
